メインページ
METAR-TAF:

METAR-TAF

空港 :

オスロ, ノルウェー

オスロ空港

緯度: 60-12N, 経度: 011-05E, 海抜: 208m

現時点の気象観測

当レポートは31分前の11:20(UTC)に作成
の風 9kt、南東から南/南西の間で変化する
気温 20°C
湿度 32%
気圧 1012 hPa
視程10km以上
1,500メートル以下は雲なし、積乱雲なし

METAR: ENGM 241120Z 18009KT 140V210 CAVOK 20/03 Q1012 NOSIG

時間: 13:51 (11:51 UTC)

予報

予報は24日の 06時(UTC)から 25日の 06時(UTC)まで有効
変向風 5kt
視程10km以上
1,500メートル以下は雲なし、積乱雲なし
24日の 09時(UTC)から 24日の 11時(UTC)まで徐々に
の風 10kt
確率 40% :
24日の 13時(UTC)から 24日の 18時(UTC)まで一時的に
高度3000ftの雲はほとんどない, 積乱雲.
高度4000ftの千切れ雲あり
にわか雨
24日の 17時(UTC)から 24日の 19時(UTC)まで徐々に
北西の風 10kt

TAF: ENGM 2406/2506 VRB05KT CAVOK BECMG 2409/2411 19010KT PROB40 TEMPO 2413/2418 SHRA FEW030CB BKN040 BECMG 2417/2419 32010KT

4,000以上の空港の気象観測と天気予報(METAR報とTAF報)

利用可能な観測所は地図上に黄色い丸と赤い丸で示す。

丸の上にカーソルを重ねると観測所名を参照できる。

次にクリックすると気象観測と天気予報を参照できる。

マップの切り替え:黒色「×」印の緑ボタンをクリックして拡大、「-」印の緑ボタンをクリックして縮小、緑色の三角印をクリックして隣りの地図に切り替え


METAR-TAF: